Terminal Aerodrome Forecast
Issued by NWS

Home | Current Version | Previous Version | Text Only | Print | Product List | Glossary Off
Versions: 1 2 3 4 5 6 7 8 9 10 11 12 13 14 15 16 17 18 19 20

000
FTUS43 KTOP 281700
TAFMHK
TAF
KMHK 281738Z 2818/0118 13009KT 1SM -SN BR BKN025 OVC040
      TEMPO 2818/2822 1/2SM SN BKN005
     FM010000 16005KT 6SM BR BKN030
     FM010500 19005KT 2SM -SN BKN020 OVC035
     FM010700 21005KT P6SM SCT015 BKN030=

USA.gov is the U.S. government's official web portal to all federal, state and local government web resources and services.